SBSV/SSA METAR and TAF weather

Enter ICAO airport designator
Station Type Date Time Source
SBSV METAR 2021/05/14 13:00 UTC NOAA

SBSV 141300Z 16011KT 140V200 9999 SCT023 BKN090 29/20 Q1016


Station Type Date Time Source
SBSV Decoded METAR 2021/05/14 13:00 UTC NOAA

Salvador Aeroporto , Brazil (SBSV) 12-54S 038-20W 13M
May 14, 2021 - 09:00 AM EDT / 2021.05.14 1300 UTC
Wind: from the SSE (160 degrees) at 13 MPH (11 KT) (direction variable):0
Visibility: greater than 7 mile(s):0
Sky conditions: mostly cloudy
Temperature: 84 F (29 C)
Dew Point: 68 F (20 C)
Relative Humidity: 58%
Pressure (altimeter): 30.00 in. Hg (1016 hPa)
ob: SBSV 141300Z 16011KT 140V200 9999 SCT023 BKN090 29/20 Q1016
cycle: 13

Station Type Date Time Source
SBSV TAF 2021/05/14 12:36 UTC NOAA

TAF SBSV 140830Z 1412/1512 13010KT 9999 BKN020 TX27/1415Z TN25/1509Z
BECMG 1413/1415 SCT022 FEW023TCU
TEMPO 1415/1417 VCSH PROB30 1420/1422 19010KT 8000 VCSH SCT020 FEW023TCU
BECMG 1422/1424 FEW020
TEMPO 1500/1506 8000 RA BKN018
RMK PGL

Example: see airport list